sensor_id;sensor_type;location;lat;lon;timestamp;temperature;humidity
23609;DHT22;11982;50.810;4.442;2023-01-23T00:00:44;1.60;99.90
23609;DHT22;11982;50.810;4.442;2023-01-23T00:03:10;1.60;99.90
23609;DHT22;11982;50.810;4.442;2023-01-23T00:05:36;1.60;99.90
23609;DHT22;11982;50.810;4.442;2023-01-23T00:08:02;1.70;99.90
23609;DHT22;11982;50.810;4.442;2023-01-23T00:10:27;1.70;99.90
23609;DHT22;11982;50.810;4.442;2023-01-23T00:12:53;1.80;99.90
23609;DHT22;11982;50.810;4.442;2023-01-23T00:15:19;1.80;99.90
23609;DHT22;11982;50.810;4.442;2023-01-23T00:17:45;1.80;99.90
23609;DHT22;11982;50.810;4.442;2023-01-23T00:20:13;1.80;99.90
23609;DHT22;11982;50.810;4.442;2023-01-23T00:22:39;1.70;99.90
23609;DHT22;11982;50.810;4.442;2023-01-23T00:25:05;1.70;99.90
23609;DHT22;11982;50.810;4.442;2023-01-23T00:27:31;1.80;99.90
23609;DHT22;11982;50.810;4.442;2023-01-23T00:29:58;1.90;99.90
23609;DHT22;11982;50.810;4.442;2023-01-23T00:32:24;1.90;99.90
23609;DHT22;11982;50.810;4.442;2023-01-23T00:34:50;1.90;99.90
23609;DHT22;11982;50.810;4.442;2023-01-23T00:37:16;2.00;99.90
23609;DHT22;11982;50.810;4.442;2023-01-23T00:39:42;1.90;99.90
23609;DHT22;11982;50.810;4.442;2023-01-23T00:42:08;1.90;99.90
23609;DHT22;11982;50.810;4.442;2023-01-23T00:44:34;1.80;99.90
23609;DHT22;11982;50.810;4.442;2023-01-23T00:46:59;1.90;99.90
23609;DHT22;11982;50.810;4.442;2023-01-23T00:49:25;1.80;99.90
23609;DHT22;11982;50.810;4.442;2023-01-23T00:51:51;1.80;99.90
23609;DHT22;11982;50.810;4.442;2023-01-23T00:54:18;1.80;99.90
23609;DHT22;11982;50.810;4.442;2023-01-23T00:56:46;1.80;99.90
23609;DHT22;11982;50.810;4.442;2023-01-23T00:59:12;1.80;99.90
23609;DHT22;11982;50.810;4.442;2023-01-23T01:01:38;1.80;99.90
23609;DHT22;11982;50.810;4.442;2023-01-23T01:04:04;1.80;99.90
23609;DHT22;11982;50.810;4.442;2023-01-23T01:06:29;1.80;99.90
23609;DHT22;11982;50.810;4.442;2023-01-23T01:08:56;1.80;99.90
23609;DHT22;11982;50.810;4.442;2023-01-23T01:11:23;1.80;99.90
23609;DHT22;11982;50.810;4.442;2023-01-23T01:13:49;1.80;99.90
23609;DHT22;11982;50.810;4.442;2023-01-23T01:16:15;1.90;99.90
23609;DHT22;11982;50.810;4.442;2023-01-23T01:18:41;2.00;99.90
23609;DHT22;11982;50.810;4.442;2023-01-23T01:21:09;2.10;99.90
23609;DHT22;11982;50.810;4.442;2023-01-23T01:23:36;2.00;99.90
23609;DHT22;11982;50.810;4.442;2023-01-23T01:26:02;1.90;99.90
23609;DHT22;11982;50.810;4.442;2023-01-23T01:28:29;2.00;99.90
23609;DHT22;11982;50.810;4.442;2023-01-23T01:31:04;2.10;99.90
23609;DHT22;11982;50.810;4.442;2023-01-23T01:33:30;2.10;99.90
23609;DHT22;11982;50.810;4.442;2023-01-23T01:35:57;2.10;99.90
23609;DHT22;11982;50.810;4.442;2023-01-23T01:38:23;2.10;99.90
23609;DHT22;11982;50.810;4.442;2023-01-23T01:40:49;2.10;99.90
23609;DHT22;11982;50.810;4.442;2023-01-23T01:43:19;2.20;99.90
23609;DHT22;11982;50.810;4.442;2023-01-23T01:53:46;2.00;99.90
23609;DHT22;11982;50.810;4.442;2023-01-23T01:56:13;2.00;99.90
23609;DHT22;11982;50.810;4.442;2023-01-23T01:58:41;1.90;99.90
23609;DHT22;11982;50.810;4.442;2023-01-23T02:01:08;1.90;99.90
23609;DHT22;11982;50.810;4.442;2023-01-23T02:03:34;1.90;99.90
23609;DHT22;11982;50.810;4.442;2023-01-23T02:06:00;1.90;99.90
23609;DHT22;11982;50.810;4.442;2023-01-23T02:08:34;2.00;99.90
23609;DHT22;11982;50.810;4.442;2023-01-23T02:11:02;2.00;99.90
23609;DHT22;11982;50.810;4.442;2023-01-23T02:13:36;1.90;99.90
23609;DHT22;11982;50.810;4.442;2023-01-23T02:16:09;1.90;99.90
23609;DHT22;11982;50.810;4.442;2023-01-23T02:18:39;1.90;99.90
23609;DHT22;11982;50.810;4.442;2023-01-23T02:21:07;1.80;99.90
23609;DHT22;11982;50.810;4.442;2023-01-23T02:26:12;1.80;99.90
23609;DHT22;11982;50.810;4.442;2023-01-23T02:28:41;1.80;99.90
23609;DHT22;11982;50.810;4.442;2023-01-23T02:31:08;1.80;99.90
23609;DHT22;11982;50.810;4.442;2023-01-23T02:36:01;1.90;99.90
23609;DHT22;11982;50.810;4.442;2023-01-23T02:41:35;2.10;99.90
23609;DHT22;11982;50.810;4.442;2023-01-23T02:44:08;2.10;99.90
23609;DHT22;11982;50.810;4.442;2023-01-23T02:46:36;2.10;99.90
23609;DHT22;11982;50.810;4.442;2023-01-23T02:49:02;2.00;99.90
23609;DHT22;11982;50.810;4.442;2023-01-23T02:51:28;2.00;99.90
23609;DHT22;11982;50.810;4.442;2023-01-23T02:53:54;2.00;99.90
23609;DHT22;11982;50.810;4.442;2023-01-23T02:56:20;2.10;99.90
23609;DHT22;11982;50.810;4.442;2023-01-23T02:58:45;2.10;99.90
23609;DHT22;11982;50.810;4.442;2023-01-23T03:01:30;1.90;99.90
23609;DHT22;11982;50.810;4.442;2023-01-23T03:04:03;2.00;99.90
23609;DHT22;11982;50.810;4.442;2023-01-23T03:06:32;2.00;99.90
23609;DHT22;11982;50.810;4.442;2023-01-23T03:09:08;2.10;99.90
23609;DHT22;11982;50.810;4.442;2023-01-23T03:11:35;2.00;99.90
23609;DHT22;11982;50.810;4.442;2023-01-23T03:14:01;2.00;99.90
23609;DHT22;11982;50.810;4.442;2023-01-23T03:16:27;2.00;99.90
23609;DHT22;11982;50.810;4.442;2023-01-23T03:18:53;1.80;99.90
23609;DHT22;11982;50.810;4.442;2023-01-23T03:21:19;1.80;99.90
23609;DHT22;11982;50.810;4.442;2023-01-23T03:23:44;1.90;99.90
23609;DHT22;11982;50.810;4.442;2023-01-23T03:26:12;1.80;99.90
23609;DHT22;11982;50.810;4.442;2023-01-23T03:28:38;1.80;99.90
23609;DHT22;11982;50.810;4.442;2023-01-23T03:31:22;1.80;99.90
23609;DHT22;11982;50.810;4.442;2023-01-23T03:33:48;1.80;99.90
23609;DHT22;11982;50.810;4.442;2023-01-23T03:36:14;1.90;99.90
23609;DHT22;11982;50.810;4.442;2023-01-23T03:38:40;1.90;99.90
23609;DHT22;11982;50.810;4.442;2023-01-23T03:41:28;2.00;99.90
23609;DHT22;11982;50.810;4.442;2023-01-23T03:43:55;1.90;99.90
23609;DHT22;11982;50.810;4.442;2023-01-23T03:46:20;2.00;99.90
23609;DHT22;11982;50.810;4.442;2023-01-23T03:48:46;2.00;99.90
23609;DHT22;11982;50.810;4.442;2023-01-23T03:51:12;2.00;99.90
23609;DHT22;11982;50.810;4.442;2023-01-23T03:53:37;2.00;99.90
23609;DHT22;11982;50.810;4.442;2023-01-23T03:56:03;2.20;99.90
23609;DHT22;11982;50.810;4.442;2023-01-23T03:58:29;2.10;99.90
23609;DHT22;11982;50.810;4.442;2023-01-23T04:00:55;2.00;99.90
23609;DHT22;11982;50.810;4.442;2023-01-23T04:03:21;1.90;99.90
23609;DHT22;11982;50.810;4.442;2023-01-23T04:05:46;1.90;99.90
23609;DHT22;11982;50.810;4.442;2023-01-23T04:08:12;1.90;99.90
23609;DHT22;11982;50.810;4.442;2023-01-23T04:10:38;1.90;99.90
23609;DHT22;11982;50.810;4.442;2023-01-23T04:13:03;2.00;99.90
23609;DHT22;11982;50.810;4.442;2023-01-23T04:15:34;2.00;99.90
23609;DHT22;11982;50.810;4.442;2023-01-23T04:17:59;2.00;99.90
23609;DHT22;11982;50.810;4.442;2023-01-23T04:20:25;2.00;99.90
23609;DHT22;11982;50.810;4.442;2023-01-23T04:22:50;2.00;99.90
23609;DHT22;11982;50.810;4.442;2023-01-23T04:25:16;1.90;99.90
23609;DHT22;11982;50.810;4.442;2023-01-23T04:27:42;2.00;99.90
23609;DHT22;11982;50.810;4.442;2023-01-23T04:30:08;2.00;99.90
23609;DHT22;11982;50.810;4.442;2023-01-23T04:32:34;2.10;99.90
23609;DHT22;11982;50.810;4.442;2023-01-23T04:35:00;2.10;99.90
23609;DHT22;11982;50.810;4.442;2023-01-23T04:37:25;2.10;99.90
23609;DHT22;11982;50.810;4.442;2023-01-23T04:39:51;2.10;99.90
23609;DHT22;11982;50.810;4.442;2023-01-23T04:42:16;2.00;99.90
23609;DHT22;11982;50.810;4.442;2023-01-23T04:44:42;2.10;99.90
23609;DHT22;11982;50.810;4.442;2023-01-23T04:47:08;2.10;99.90
23609;DHT22;11982;50.810;4.442;2023-01-23T04:49:33;2.10;99.90
23609;DHT22;11982;50.810;4.442;2023-01-23T04:51:59;2.20;99.90
23609;DHT22;11982;50.810;4.442;2023-01-23T04:54:25;2.40;99.90
23609;DHT22;11982;50.810;4.442;2023-01-23T04:56:50;2.40;99.90
23609;DHT22;11982;50.810;4.442;2023-01-23T04:59:16;2.20;99.90
23609;DHT22;11982;50.810;4.442;2023-01-23T05:01:42;2.20;99.90
23609;DHT22;11982;50.810;4.442;2023-01-23T05:04:08;2.10;99.90
23609;DHT22;11982;50.810;4.442;2023-01-23T05:06:33;2.10;99.90
23609;DHT22;11982;50.810;4.442;2023-01-23T05:08:59;2.10;99.90
23609;DHT22;11982;50.810;4.442;2023-01-23T05:11:25;2.20;99.90
23609;DHT22;11982;50.810;4.442;2023-01-23T05:13:50;2.20;99.90
23609;DHT22;11982;50.810;4.442;2023-01-23T05:16:16;2.20;99.90
23609;DHT22;11982;50.810;4.442;2023-01-23T05:18:42;2.20;99.90
23609;DHT22;11982;50.810;4.442;2023-01-23T05:21:08;2.20;99.90
23609;DHT22;11982;50.810;4.442;2023-01-23T05:23:33;2.10;99.90
23609;DHT22;11982;50.810;4.442;2023-01-23T05:25:59;2.20;99.90
23609;DHT22;11982;50.810;4.442;2023-01-23T05:28:25;2.10;99.90
23609;DHT22;11982;50.810;4.442;2023-01-23T05:30:50;2.20;99.90
23609;DHT22;11982;50.810;4.442;2023-01-23T05:33:16;2.10;99.90
23609;DHT22;11982;50.810;4.442;2023-01-23T05:35:42;2.20;99.90
23609;DHT22;11982;50.810;4.442;2023-01-23T05:38:09;2.20;99.90
23609;DHT22;11982;50.810;4.442;2023-01-23T05:40:36;2.20;99.90
23609;DHT22;11982;50.810;4.442;2023-01-23T05:43:01;2.30;99.90
23609;DHT22;11982;50.810;4.442;2023-01-23T05:45:27;2.30;99.90
23609;DHT22;11982;50.810;4.442;2023-01-23T05:47:53;2.20;99.90
23609;DHT22;11982;50.810;4.442;2023-01-23T05:50:20;2.20;99.90
23609;DHT22;11982;50.810;4.442;2023-01-23T05:52:48;2.30;99.90
23609;DHT22;11982;50.810;4.442;2023-01-23T05:55:14;2.30;99.90
23609;DHT22;11982;50.810;4.442;2023-01-23T05:57:40;2.40;99.90
23609;DHT22;11982;50.810;4.442;2023-01-23T06:00:07;2.40;99.90
23609;DHT22;11982;50.810;4.442;2023-01-23T06:02:33;2.50;99.90
23609;DHT22;11982;50.810;4.442;2023-01-23T06:04:59;2.60;99.90
23609;DHT22;11982;50.810;4.442;2023-01-23T06:07:25;2.40;99.90
23609;DHT22;11982;50.810;4.442;2023-01-23T06:09:51;2.30;99.90
23609;DHT22;11982;50.810;4.442;2023-01-23T06:12:16;2.30;99.90
23609;DHT22;11982;50.810;4.442;2023-01-23T06:14:42;2.30;99.90
23609;DHT22;11982;50.810;4.442;2023-01-23T06:17:10;2.20;99.90
23609;DHT22;11982;50.810;4.442;2023-01-23T06:19:36;2.20;99.90
23609;DHT22;11982;50.810;4.442;2023-01-23T06:22:02;2.20;99.90
23609;DHT22;11982;50.810;4.442;2023-01-23T06:24:27;2.20;99.90
23609;DHT22;11982;50.810;4.442;2023-01-23T06:26:53;2.20;99.90
23609;DHT22;11982;50.810;4.442;2023-01-23T06:29:19;2.30;99.90
23609;DHT22;11982;50.810;4.442;2023-01-23T06:31:44;2.30;99.90
23609;DHT22;11982;50.810;4.442;2023-01-23T06:34:12;2.30;99.90
23609;DHT22;11982;50.810;4.442;2023-01-23T06:36:38;2.30;99.90
23609;DHT22;11982;50.810;4.442;2023-01-23T06:39:05;2.30;99.90
23609;DHT22;11982;50.810;4.442;2023-01-23T06:41:31;2.30;99.90
23609;DHT22;11982;50.810;4.442;2023-01-23T06:43:56;2.30;99.90
23609;DHT22;11982;50.810;4.442;2023-01-23T06:46:22;2.40;99.90
23609;DHT22;11982;50.810;4.442;2023-01-23T06:48:48;2.40;99.90
23609;DHT22;11982;50.810;4.442;2023-01-23T06:51:14;2.40;99.90
23609;DHT22;11982;50.810;4.442;2023-01-23T06:53:40;2.30;99.90
23609;DHT22;11982;50.810;4.442;2023-01-23T06:56:06;2.40;99.90
23609;DHT22;11982;50.810;4.442;2023-01-23T06:58:33;2.50;99.90
23609;DHT22;11982;50.810;4.442;2023-01-23T07:01:06;2.40;99.90
23609;DHT22;11982;50.810;4.442;2023-01-23T07:03:33;2.50;99.90
23609;DHT22;11982;50.810;4.442;2023-01-23T07:06:02;2.60;99.90
23609;DHT22;11982;50.810;4.442;2023-01-23T07:08:27;2.50;99.90
23609;DHT22;11982;50.810;4.442;2023-01-23T07:10:53;2.40;99.90
23609;DHT22;11982;50.810;4.442;2023-01-23T07:13:19;2.50;99.90
23609;DHT22;11982;50.810;4.442;2023-01-23T07:15:45;2.60;99.90
23609;DHT22;11982;50.810;4.442;2023-01-23T07:18:12;2.50;99.90
23609;DHT22;11982;50.810;4.442;2023-01-23T07:20:37;2.50;99.90
23609;DHT22;11982;50.810;4.442;2023-01-23T07:23:03;2.40;99.90
23609;DHT22;11982;50.810;4.442;2023-01-23T07:25:29;2.40;99.90
23609;DHT22;11982;50.810;4.442;2023-01-23T07:27:55;2.40;99.90
23609;DHT22;11982;50.810;4.442;2023-01-23T07:30:20;2.40;99.90
23609;DHT22;11982;50.810;4.442;2023-01-23T07:32:46;2.40;99.90
23609;DHT22;11982;50.810;4.442;2023-01-23T07:35:12;2.40;99.90
23609;DHT22;11982;50.810;4.442;2023-01-23T07:37:38;2.30;99.90
23609;DHT22;11982;50.810;4.442;2023-01-23T07:40:04;2.40;99.90
23609;DHT22;11982;50.810;4.442;2023-01-23T07:42:30;2.30;99.90
23609;DHT22;11982;50.810;4.442;2023-01-23T07:44:55;2.40;99.90
23609;DHT22;11982;50.810;4.442;2023-01-23T07:47:21;2.40;99.90
23609;DHT22;11982;50.810;4.442;2023-01-23T07:49:46;2.30;99.90
23609;DHT22;11982;50.810;4.442;2023-01-23T07:52:12;2.30;99.90
23609;DHT22;11982;50.810;4.442;2023-01-23T07:54:38;2.30;99.90
23609;DHT22;11982;50.810;4.442;2023-01-23T07:57:03;2.40;99.90
23609;DHT22;11982;50.810;4.442;2023-01-23T07:59:29;2.40;99.90
23609;DHT22;11982;50.810;4.442;2023-01-23T08:01:55;2.40;99.90
23609;DHT22;11982;50.810;4.442;2023-01-23T08:04:21;2.40;99.90
23609;DHT22;11982;50.810;4.442;2023-01-23T08:06:46;2.40;99.90
23609;DHT22;11982;50.810;4.442;2023-01-23T08:09:12;2.30;99.90
23609;DHT22;11982;50.810;4.442;2023-01-23T08:11:38;2.30;99.90
23609;DHT22;11982;50.810;4.442;2023-01-23T08:14:04;2.40;99.90
23609;DHT22;11982;50.810;4.442;2023-01-23T08:16:32;2.40;99.90
23609;DHT22;11982;50.810;4.442;2023-01-23T08:18:58;2.40;99.90
23609;DHT22;11982;50.810;4.442;2023-01-23T08:21:24;2.50;99.90
23609;DHT22;11982;50.810;4.442;2023-01-23T08:23:49;2.40;99.90
23609;DHT22;11982;50.810;4.442;2023-01-23T08:26:16;2.50;99.90
23609;DHT22;11982;50.810;4.442;2023-01-23T08:28:43;2.50;99.90
23609;DHT22;11982;50.810;4.442;2023-01-23T08:31:10;2.60;99.90
23609;DHT22;11982;50.810;4.442;2023-01-23T08:33:37;2.50;99.90
23609;DHT22;11982;50.810;4.442;2023-01-23T08:36:04;2.50;99.90
23609;DHT22;11982;50.810;4.442;2023-01-23T08:38:31;2.60;99.90
23609;DHT22;11982;50.810;4.442;2023-01-23T08:40:59;2.70;99.90
23609;DHT22;11982;50.810;4.442;2023-01-23T08:43:25;2.80;99.90
23609;DHT22;11982;50.810;4.442;2023-01-23T08:45:53;2.90;99.90
23609;DHT22;11982;50.810;4.442;2023-01-23T08:48:20;3.00;99.90
23609;DHT22;11982;50.810;4.442;2023-01-23T08:50:47;3.00;99.90
23609;DHT22;11982;50.810;4.442;2023-01-23T08:53:13;3.00;99.90
23609;DHT22;11982;50.810;4.442;2023-01-23T08:55:39;2.90;99.90
23609;DHT22;11982;50.810;4.442;2023-01-23T08:58:06;2.70;99.90
23609;DHT22;11982;50.810;4.442;2023-01-23T09:00:32;2.70;99.90
23609;DHT22;11982;50.810;4.442;2023-01-23T09:03:02;2.70;99.90
23609;DHT22;11982;50.810;4.442;2023-01-23T09:05:28;2.70;99.90
23609;DHT22;11982;50.810;4.442;2023-01-23T09:07:55;2.70;99.90
23609;DHT22;11982;50.810;4.442;2023-01-23T09:10:22;2.80;99.90
23609;DHT22;11982;50.810;4.442;2023-01-23T09:12:50;2.80;99.90
23609;DHT22;11982;50.810;4.442;2023-01-23T09:15:16;2.90;99.90
23609;DHT22;11982;50.810;4.442;2023-01-23T09:17:42;2.90;99.90
23609;DHT22;11982;50.810;4.442;2023-01-23T09:20:08;2.90;99.90
23609;DHT22;11982;50.810;4.442;2023-01-23T09:22:34;2.90;99.90
23609;DHT22;11982;50.810;4.442;2023-01-23T09:24:59;2.90;99.90
23609;DHT22;11982;50.810;4.442;2023-01-23T09:27:25;3.10;99.90
23609;DHT22;11982;50.810;4.442;2023-01-23T09:29:51;3.20;99.90
23609;DHT22;11982;50.810;4.442;2023-01-23T09:32:17;3.40;99.90
23609;DHT22;11982;50.810;4.442;2023-01-23T09:34:42;3.40;99.90
23609;DHT22;11982;50.810;4.442;2023-01-23T09:37:08;3.30;99.90
23609;DHT22;11982;50.810;4.442;2023-01-23T09:39:34;3.30;99.90
23609;DHT22;11982;50.810;4.442;2023-01-23T09:42:03;3.40;99.90
23609;DHT22;11982;50.810;4.442;2023-01-23T09:45:00;3.50;99.90
23609;DHT22;11982;50.810;4.442;2023-01-23T09:47:41;3.40;99.90
23609;DHT22;11982;50.810;4.442;2023-01-23T09:50:19;3.40;99.90
23609;DHT22;11982;50.810;4.442;2023-01-23T09:52:50;3.40;99.90
23609;DHT22;11982;50.810;4.442;2023-01-23T09:58:18;3.30;99.90
23609;DHT22;11982;50.810;4.442;2023-01-23T10:00:46;3.20;99.90
23609;DHT22;11982;50.810;4.442;2023-01-23T10:03:14;3.30;99.90
23609;DHT22;11982;50.810;4.442;2023-01-23T10:17:05;3.60;99.90
23609;DHT22;11982;50.810;4.442;2023-01-23T10:19:59;3.80;99.90
23609;DHT22;11982;50.810;4.442;2023-01-23T10:22:34;3.70;99.90
23609;DHT22;11982;50.810;4.442;2023-01-23T10:25:21;3.70;99.90
23609;DHT22;11982;50.810;4.442;2023-01-23T10:27:49;3.60;99.90
23609;DHT22;11982;50.810;4.442;2023-01-23T10:30:33;3.70;99.90
23609;DHT22;11982;50.810;4.442;2023-01-23T10:33:17;3.80;99.90
23609;DHT22;11982;50.810;4.442;2023-01-23T10:36:23;3.80;99.90
23609;DHT22;11982;50.810;4.442;2023-01-23T10:39:13;3.80;99.90
23609;DHT22;11982;50.810;4.442;2023-01-23T10:41:39;3.80;99.90
23609;DHT22;11982;50.810;4.442;2023-01-23T10:44:15;4.00;99.90
23609;DHT22;11982;50.810;4.442;2023-01-23T10:46:54;3.90;99.90
23609;DHT22;11982;50.810;4.442;2023-01-23T10:49:36;3.80;99.90
23609;DHT22;11982;50.810;4.442;2023-01-23T10:52:37;4.00;99.90
23609;DHT22;11982;50.810;4.442;2023-01-23T10:55:05;3.90;99.90
23609;DHT22;11982;50.810;4.442;2023-01-23T10:57:52;4.10;99.90
23609;DHT22;11982;50.810;4.442;2023-01-23T11:02:49;4.00;99.90
23609;DHT22;11982;50.810;4.442;2023-01-23T11:05:38;4.00;99.90
23609;DHT22;11982;50.810;4.442;2023-01-23T11:08:21;3.90;99.90
23609;DHT22;11982;50.810;4.442;2023-01-23T11:10:48;4.00;99.90
23609;DHT22;11982;50.810;4.442;2023-01-23T11:13:28;4.00;99.90
23609;DHT22;11982;50.810;4.442;2023-01-23T11:15:54;4.00;99.90
23609;DHT22;11982;50.810;4.442;2023-01-23T11:18:32;4.00;99.90
23609;DHT22;11982;50.810;4.442;2023-01-23T11:20:59;3.90;99.90
23609;DHT22;11982;50.810;4.442;2023-01-23T11:23:25;4.10;99.90
23609;DHT22;11982;50.810;4.442;2023-01-23T11:25:52;4.20;99.90
23609;DHT22;11982;50.810;4.442;2023-01-23T11:30:58;4.10;99.90
23609;DHT22;11982;50.810;4.442;2023-01-23T11:38:52;4.20;99.90
23609;DHT22;11982;50.810;4.442;2023-01-23T11:41:29;4.10;99.90
23609;DHT22;11982;50.810;4.442;2023-01-23T11:44:07;3.90;99.90
23609;DHT22;11982;50.810;4.442;2023-01-23T11:52:26;3.80;99.90
23609;DHT22;11982;50.810;4.442;2023-01-23T12:08:55;4.00;99.90
23609;DHT22;11982;50.810;4.442;2023-01-23T12:11:26;4.00;99.90
23609;DHT22;11982;50.810;4.442;2023-01-23T12:19:44;4.30;99.90
23609;DHT22;11982;50.810;4.442;2023-01-23T12:22:43;4.10;99.90
23609;DHT22;11982;50.810;4.442;2023-01-23T12:25:17;4.20;99.90
23609;DHT22;11982;50.810;4.442;2023-01-23T12:27:48;4.30;99.90
23609;DHT22;11982;50.810;4.442;2023-01-23T12:36:12;4.60;99.90
23609;DHT22;11982;50.810;4.442;2023-01-23T12:38:48;4.60;99.90
23609;DHT22;11982;50.810;4.442;2023-01-23T12:41:41;4.60;99.90
23609;DHT22;11982;50.810;4.442;2023-01-23T12:44:22;4.40;99.90
23609;DHT22;11982;50.810;4.442;2023-01-23T12:49:42;4.50;99.90
23609;DHT22;11982;50.810;4.442;2023-01-23T12:54:45;4.40;99.90
23609;DHT22;11982;50.810;4.442;2023-01-23T12:57:13;4.50;99.90
23609;DHT22;11982;50.810;4.442;2023-01-23T13:05:32;4.40;99.90
23609;DHT22;11982;50.810;4.442;2023-01-23T13:08:21;4.40;99.90
23609;DHT22;11982;50.810;4.442;2023-01-23T13:13:58;4.10;99.90
23609;DHT22;11982;50.810;4.442;2023-01-23T13:16:29;4.20;99.90
23609;DHT22;11982;50.810;4.442;2023-01-23T13:19:00;4.20;99.90
23609;DHT22;11982;50.810;4.442;2023-01-23T13:24:50;4.30;99.90
23609;DHT22;11982;50.810;4.442;2023-01-23T13:27:49;4.10;99.90
23609;DHT22;11982;50.810;4.442;2023-01-23T13:32:59;4.10;99.90
23609;DHT22;11982;50.810;4.442;2023-01-23T13:49:19;4.50;99.90
23609;DHT22;11982;50.810;4.442;2023-01-23T13:52:10;4.40;99.90
23609;DHT22;11982;50.810;4.442;2023-01-23T13:54:56;4.30;99.90
23609;DHT22;11982;50.810;4.442;2023-01-23T13:57:40;4.30;99.90
23609;DHT22;11982;50.810;4.442;2023-01-23T14:00:13;4.20;99.90
23609;DHT22;11982;50.810;4.442;2023-01-23T14:02:44;4.20;99.90
23609;DHT22;11982;50.810;4.442;2023-01-23T14:05:33;4.20;99.90
23609;DHT22;11982;50.810;4.442;2023-01-23T14:08:05;4.20;99.90
23609;DHT22;11982;50.810;4.442;2023-01-23T14:10:32;4.30;99.90
23609;DHT22;11982;50.810;4.442;2023-01-23T14:13:06;4.30;99.90
23609;DHT22;11982;50.810;4.442;2023-01-23T14:15:33;4.30;99.90
23609;DHT22;11982;50.810;4.442;2023-01-23T14:18:38;4.20;99.90
23609;DHT22;11982;50.810;4.442;2023-01-23T14:21:25;4.50;99.90
23609;DHT22;11982;50.810;4.442;2023-01-23T14:23:56;4.30;99.90
23609;DHT22;11982;50.810;4.442;2023-01-23T14:26:28;4.30;99.90
23609;DHT22;11982;50.810;4.442;2023-01-23T14:29:02;4.30;99.90
23609;DHT22;11982;50.810;4.442;2023-01-23T14:31:32;4.20;99.90
23609;DHT22;11982;50.810;4.442;2023-01-23T14:34:11;4.00;99.90
23609;DHT22;11982;50.810;4.442;2023-01-23T14:36:43;4.20;99.90
23609;DHT22;11982;50.810;4.442;2023-01-23T14:39:17;4.20;99.90
23609;DHT22;11982;50.810;4.442;2023-01-23T14:41:43;4.30;99.90
23609;DHT22;11982;50.810;4.442;2023-01-23T14:44:39;4.20;99.90
23609;DHT22;11982;50.810;4.442;2023-01-23T14:47:32;4.10;99.90
23609;DHT22;11982;50.810;4.442;2023-01-23T14:49:57;4.10;99.90
23609;DHT22;11982;50.810;4.442;2023-01-23T14:52:25;4.10;99.90
23609;DHT22;11982;50.810;4.442;2023-01-23T14:54:53;4.00;99.90
23609;DHT22;11982;50.810;4.442;2023-01-23T14:57:21;3.90;99.90
23609;DHT22;11982;50.810;4.442;2023-01-23T14:59:48;3.90;99.90
23609;DHT22;11982;50.810;4.442;2023-01-23T15:02:33;4.00;99.90
23609;DHT22;11982;50.810;4.442;2023-01-23T15:05:05;4.00;99.90
23609;DHT22;11982;50.810;4.442;2023-01-23T15:07:31;3.90;99.90
23609;DHT22;11982;50.810;4.442;2023-01-23T15:09:57;3.80;99.90
23609;DHT22;11982;50.810;4.442;2023-01-23T15:12:22;3.80;99.90
23609;DHT22;11982;50.810;4.442;2023-01-23T15:14:51;3.90;99.90
23609;DHT22;11982;50.810;4.442;2023-01-23T15:17:19;3.90;99.90
23609;DHT22;11982;50.810;4.442;2023-01-23T15:19:52;4.00;99.90
23609;DHT22;11982;50.810;4.442;2023-01-23T15:22:28;4.10;99.90
23609;DHT22;11982;50.810;4.442;2023-01-23T15:24:54;3.90;99.90
23609;DHT22;11982;50.810;4.442;2023-01-23T15:27:30;4.00;99.90
23609;DHT22;11982;50.810;4.442;2023-01-23T15:32:52;3.90;99.90
23609;DHT22;11982;50.810;4.442;2023-01-23T15:35:18;3.80;99.90
23609;DHT22;11982;50.810;4.442;2023-01-23T15:37:47;3.90;99.90
23609;DHT22;11982;50.810;4.442;2023-01-23T15:40:18;3.90;99.90
23609;DHT22;11982;50.810;4.442;2023-01-23T15:43:01;3.70;99.90
23609;DHT22;11982;50.810;4.442;2023-01-23T15:45:28;3.60;99.90
23609;DHT22;11982;50.810;4.442;2023-01-23T15:47:53;3.60;99.90
23609;DHT22;11982;50.810;4.442;2023-01-23T15:50:19;3.50;99.90
23609;DHT22;11982;50.810;4.442;2023-01-23T15:52:50;3.50;99.90
23609;DHT22;11982;50.810;4.442;2023-01-23T15:55:17;3.30;99.90
23609;DHT22;11982;50.810;4.442;2023-01-23T15:57:46;3.30;99.90
23609;DHT22;11982;50.810;4.442;2023-01-23T16:00:16;3.30;99.90
23609;DHT22;11982;50.810;4.442;2023-01-23T16:02:42;3.30;99.90
23609;DHT22;11982;50.810;4.442;2023-01-23T16:05:08;3.30;99.90
23609;DHT22;11982;50.810;4.442;2023-01-23T16:07:40;3.40;99.90
23609;DHT22;11982;50.810;4.442;2023-01-23T16:12:40;3.40;99.90
23609;DHT22;11982;50.810;4.442;2023-01-23T16:15:17;3.40;99.90
23609;DHT22;11982;50.810;4.442;2023-01-23T16:17:44;3.50;99.90
23609;DHT22;11982;50.810;4.442;2023-01-23T16:20:27;3.50;99.90
23609;DHT22;11982;50.810;4.442;2023-01-23T16:22:56;3.40;99.90
23609;DHT22;11982;50.810;4.442;2023-01-23T16:25:38;3.30;99.90
23609;DHT22;11982;50.810;4.442;2023-01-23T16:28:05;3.20;99.90
23609;DHT22;11982;50.810;4.442;2023-01-23T16:30:31;3.20;99.90
23609;DHT22;11982;50.810;4.442;2023-01-23T16:32:57;3.10;99.90
23609;DHT22;11982;50.810;4.442;2023-01-23T16:35:22;3.20;99.90
23609;DHT22;11982;50.810;4.442;2023-01-23T16:37:50;3.20;99.90
23609;DHT22;11982;50.810;4.442;2023-01-23T16:40:23;3.20;99.90
23609;DHT22;11982;50.810;4.442;2023-01-23T16:42:51;3.20;99.90
23609;DHT22;11982;50.810;4.442;2023-01-23T16:45:20;3.20;99.90
23609;DHT22;11982;50.810;4.442;2023-01-23T16:47:46;3.30;99.90
23609;DHT22;11982;50.810;4.442;2023-01-23T16:50:14;3.20;99.90
23609;DHT22;11982;50.810;4.442;2023-01-23T16:52:41;3.30;99.90
23609;DHT22;11982;50.810;4.442;2023-01-23T16:55:20;3.30;99.90
23609;DHT22;11982;50.810;4.442;2023-01-23T16:57:48;3.30;99.90
23609;DHT22;11982;50.810;4.442;2023-01-23T17:00:16;3.30;99.90
23609;DHT22;11982;50.810;4.442;2023-01-23T17:02:47;3.20;99.90
23609;DHT22;11982;50.810;4.442;2023-01-23T17:05:15;3.20;99.90
23609;DHT22;11982;50.810;4.442;2023-01-23T17:07:40;3.20;99.90
23609;DHT22;11982;50.810;4.442;2023-01-23T17:10:06;3.20;99.90
23609;DHT22;11982;50.810;4.442;2023-01-23T17:12:34;3.20;99.90
23609;DHT22;11982;50.810;4.442;2023-01-23T17:15:01;3.20;99.90
23609;DHT22;11982;50.810;4.442;2023-01-23T17:17:36;3.20;99.90
23609;DHT22;11982;50.810;4.442;2023-01-23T17:20:03;3.20;99.90
23609;DHT22;11982;50.810;4.442;2023-01-23T17:22:35;3.20;99.90
23609;DHT22;11982;50.810;4.442;2023-01-23T17:25:02;3.40;99.90
23609;DHT22;11982;50.810;4.442;2023-01-23T17:27:28;3.30;99.90
23609;DHT22;11982;50.810;4.442;2023-01-23T17:29:54;3.30;99.90
23609;DHT22;11982;50.810;4.442;2023-01-23T17:32:36;3.30;99.90
23609;DHT22;11982;50.810;4.442;2023-01-23T17:35:05;3.20;99.90
23609;DHT22;11982;50.810;4.442;2023-01-23T17:37:33;3.10;99.90
23609;DHT22;11982;50.810;4.442;2023-01-23T17:39:59;3.00;99.90
23609;DHT22;11982;50.810;4.442;2023-01-23T17:42:25;3.00;99.90
23609;DHT22;11982;50.810;4.442;2023-01-23T17:44:51;2.90;99.90
23609;DHT22;11982;50.810;4.442;2023-01-23T17:47:17;2.90;99.90
23609;DHT22;11982;50.810;4.442;2023-01-23T17:49:50;3.00;99.90